EDDLMDPP

Guest
Details From EDDL - Duesseldorf
To MDPP - Puerto Plata Gregorio Luperon Intl
Flight Number -
Tags decoded
Created
Modified
Stats Distance 4,094 nm / 7,582 km
Max Altitude 0 ft / 0 m
Waypoints 6
Social Downloads 2
Likes 0
Share VATSIM

Download

Looking for another format? Having issues loading an existing format? Contact us
Advertisement - Login to hide

Notes

Requested: EDDL MODRU RIVAK PASAS SIFEN MDPP

Route

EDDL MODRU RIVAK PASAS SIFEN MDPP

ID Type Via Altitude Latitude Longitude Leg Dist Tot Dist Heading (true) Name
O EDDL APT - 0 ft / 0 m 51.28942˚ 6.76664˚ - 0 nm - Duesseldorf
MODRU FIX - 0 ft / 0 m 51.01750˚ 6.09000˚ 30 nm 30 nm 238° / 237° -
RIVAK FIX - 0 ft / 0 m 46.00000˚ -8.00000˚ 635 nm 665 nm 247° / 237° -
PASAS FIX - 0 ft / 0 m 45.00000˚ -13.00000˚ 218 nm 884 nm 256° / 252° -
SIFEN FIX - 0 ft / 0 m 27.00000˚ -60.00000˚ 2483 nm 3367 nm 261° / 232° -
O MDPP APT - 0 ft / 0 m 19.75790˚ -70.57003˚ 726 nm 4093 nm 235° / 231° Puerto Plata Gregorio Luperon Intl

Altitude Profile

Advertisement - Login to hide

Weather


0- 5 10 15 20 25 30 35+ Temperature / ° C

Clouds and Precipitation
Forecast for 2018-05-23 00:00 UTC. Updated 37 minutes ago

Ground ~20,000 ft ~40,000 ft Winds

EDDL

Details ICAO EDDL (DUS)
Name Duesseldorf
Region Germany - Civil
Timezone Europe/Berlin (UTC+2.0)
Stats Elevation 146 ft / 45 m (AMSL)
Location 51.289419° 6.766637°
Runways 2
Magnetic Variation 1.866° E

METAR

EDDL 222320Z VRB01KT 9000 NSC 15/14 Q1016 NOSIG

Decode

TAF

TAF EDDL 222300Z 2300/2406 VRB03KT CAVOK PROB30 TEMPO 2300/2306 3500 BR BECMG 2306/2309 05007KT BECMG 2309/2312 05012KT BECMG 2318/2321 04007KT

Decode

Departure Runways

ID Width Length Bearing (true) Bearing (mag) Surface Threshold Offset Overrun Length
05L 148 ft / 45 m 8,895 ft / 2,711 m 52.72° 50.85° Concrete 994 ft / 303 m 906 ft / 276 m
05R 148 ft / 45 m 9,858 ft / 3,005 m 52.68° 50.81° Concrete 984 ft / 300 m 659 ft / 201 m
23L 148 ft / 45 m 9,858 ft / 3,005 m 232.71° 230.84° Concrete 984 ft / 300 m 702 ft / 214 m
23R 148 ft / 45 m 8,895 ft / 2,711 m 232.75° 230.88° Concrete 971 ft / 296 m 928 ft / 283 m

MDPP

Details ICAO MDPP (POP)
Name Puerto Plata Gregorio Luperon Intl
Region Dominican Republic
Timezone America/Santo_Domingo (UTC-4.0)
Stats Elevation 15 ft / 5 m (AMSL)
Location 19.757900° -70.570035°
Runways 1
Magnetic Variation 11.259° W

METAR

MDPP 222300Z 09012KT 9999 FW020 27/24 Q1015

Decode

TAF

Not found

Destination Runways

ID Width Length Bearing (true) Bearing (mag) Surface Threshold Offset Overrun Length
08 151 ft / 46 m 10,101 ft / 3,079 m 72.95° 84.21° Asphalt 0 ft / 0 m 0 ft / 0 m
26 151 ft / 46 m 10,101 ft / 3,079 m 252.95° 264.21° Asphalt 0 ft / 0 m 0 ft / 0 m

Popular Alternatives